Time;durP1;ratioP1;P1;durP2;ratioP2;P2;SDS_P1;SDS_P2;PMS_P1;PMS_P2;Temp;Humidity;BMP_temperature;BMP_pressure;BME280_temperature;BME280_humidity;BME280_pressure;Samples;Min_cycle;Max_cycle;Signal;HPM_P1;HPM_P2
2023/03/27 00:02:22;;;;;;;35.73;33.33;;;20.90;92.70;;;;;;5071688;28;20187;-65
2023/03/27 00:04:49;;;;;;;33.93;32.00;;;21.00;92.80;;;;;;5070340;28;20270;-65
2023/03/27 00:07:18;;;;;;;35.17;33.17;;;21.10;92.70;;;;;;5077166;28;20223;-65
2023/03/27 00:09:46;;;;;;;35.00;33.00;;;21.20;92.70;;;;;;5071550;28;20660;-69
2023/03/27 00:12:13;;;;;;;33.13;31.13;;;21.20;92.70;;;;;;5070068;28;20171;-65
2023/03/27 00:14:40;;;;;;;32.13;30.33;;;21.20;92.60;;;;;;5073067;28;20270;-76
2023/03/27 00:17:08;;;;;;;30.57;28.83;;;21.20;92.30;;;;;;5073411;28;20186;-71
2023/03/27 00:19:35;;;;;;;32.97;31.03;;;21.20;92.30;;;;;;5072277;28;20179;-68
2023/03/27 00:22:02;;;;;;;34.20;31.87;;;21.20;92.30;;;;;;5072536;28;20179;-70
2023/03/27 00:24:31;;;;;;;34.80;32.63;;;21.20;92.30;;;;;;5072045;28;20633;-69
2023/03/27 00:26:58;;;;;;;34.37;32.20;;;21.30;92.20;;;;;;5067169;28;20219;-73
2023/03/27 00:29:26;;;;;;;33.00;31.10;;;21.30;92.10;;;;;;5072534;28;20254;-70
2023/03/27 00:31:54;;;;;;;32.27;30.20;;;21.50;92.20;;;;;;5066950;28;20244;-69
2023/03/27 00:34:21;;;;;;;28.97;27.03;;;21.60;92.00;;;;;;5069478;28;20203;-70
2023/03/27 00:36:50;;;;;;;30.33;28.40;;;21.60;91.60;;;;;;5071544;28;20534;-75
2023/03/27 00:39:18;;;;;;;29.87;27.87;;;21.80;91.80;;;;;;5071903;28;20194;-75
2023/03/27 00:41:47;;;;;;;25.27;23.67;;;21.80;91.60;;;;;;5071485;28;20182;-78
2023/03/27 00:44:33;;;;;;;24.10;22.47;;;21.80;91.10;;;;;;5073433;28;20198;-69
2023/03/27 00:47:02;;;;;;;20.70;19.40;;;21.80;91.10;;;;;;5076767;28;20633;-72
2023/03/27 00:49:33;;;;;;;21.50;19.97;;;21.70;90.80;;;;;;5076532;28;20301;-71
2023/03/27 00:52:03;;;;;;;20.60;19.07;;;21.70;90.90;;;;;;5061695;28;20175;-78
2023/03/27 00:54:35;;;;;;;20.80;19.50;;;21.70;91.00;;;;;;5071728;28;20194;-74
2023/03/27 00:57:08;;;;;;;19.20;18.07;;;21.80;90.90;;;;;;5072016;28;20175;-70
2023/03/27 00:59:41;;;;;;;18.13;17.03;;;21.80;91.10;;;;;;5076459;28;20580;-67
2023/03/27 01:02:10;;;;;;;17.70;16.53;;;21.90;90.80;;;;;;5062881;28;20656;-72
2023/03/27 01:04:39;;;;;;;16.13;14.93;;;22.00;90.80;;;;;;5076790;28;20190;-69
2023/03/27 01:07:10;;;;;;;14.67;13.57;;;22.20;90.60;;;;;;5063161;28;20287;-68
2023/03/27 01:09:37;;;;;;;12.33;11.40;;;22.30;90.10;;;;;;5075528;28;20215;-75
2023/03/27 01:12:05;;;;;;;11.40;10.60;;;22.30;89.80;;;;;;5076451;28;20241;-75
2023/03/27 01:14:50;;;;;;;11.87;11.13;;;22.10;89.30;;;;;;5074555;28;20218;-71
2023/03/27 01:17:53;;;;;;;11.43;10.63;;;22.00;89.60;;;;;;5068278;28;20685;-71
2023/03/27 01:21:05;;;;;;;12.07;11.27;;;22.20;90.00;;;;;;5063930;28;20188;-67
2023/03/27 01:23:50;;;;;;;11.50;10.70;;;22.20;89.80;;;;;;5061978;28;20264;-66
2023/03/27 01:26:50;;;;;;;11.90;11.10;;;22.30;89.80;;;;;;5075705;28;20175;-67
2023/03/27 01:29:35;;;;;;;10.33;9.50;;;22.50;89.90;;;;;;5052968;28;20251;-68
2023/03/27 01:32:23;;;;;;;10.57;9.87;;;22.40;89.20;;;;;;5068361;28;20598;-71
2023/03/27 01:35:15;;;;;;;10.53;9.47;;;22.50;89.30;;;;;;5075999;28;20637;-71
2023/03/27 01:38:12;;;;;;;9.40;8.60;;;22.60;88.90;;;;;;5079808;28;20171;-69
2023/03/27 01:41:19;;;;;;;8.03;7.33;;;22.70;88.50;;;;;;5070480;28;20183;-71
2023/03/27 01:43:53;;;;;;;8.67;7.20;;;22.70;87.90;;;;;;5075556;28;20180;-69
2023/03/27 01:46:31;;;;;;;8.23;6.30;;;22.80;88.40;;;;;;5082081;28;20183;-66
2023/03/27 01:49:30;;;;;;;7.20;6.60;;;22.80;87.50;;;;;;5082046;28;20210;-70
2023/03/27 01:52:05;;;;;;;6.87;6.30;;;22.80;88.00;;;;;;5053148;28;20202;-72
2023/03/27 01:54:36;;;;;;;6.33;5.73;;;22.80;87.40;;;;;;5081969;28;20232;-67
2023/03/27 01:57:21;;;;;;;6.37;5.77;;;22.80;87.40;;;;;;5064569;28;20187;-68
2023/03/27 02:00:11;;;;;;;5.50;4.90;;;22.80;87.50;;;;;;5073983;28;20529;-69
2023/03/27 02:02:41;;;;;;;5.43;4.93;;;23.00;87.30;;;;;;5081463;28;20680;-67
2023/03/27 02:05:46;;;;;;;6.27;5.47;;;23.00;86.70;;;;;;5077785;28;20641;-71
2023/03/27 02:08:21;;;;;;;6.87;4.67;;;23.20;86.50;;;;;;5077959;28;20233;-69
2023/03/27 02:10:55;;;;;;;4.70;4.30;;;23.20;87.10;;;;;;5073630;28;20178;-67
2023/03/27 02:13:28;;;;;;;7.17;4.70;;;23.40;86.40;;;;;;5076067;28;20179;-67
2023/03/27 02:15:59;;;;;;;7.97;3.40;;;23.50;85.10;;;;;;5071657;28;20642;-67
2023/03/27 02:18:34;;;;;;;3.47;2.93;;;23.60;84.20;;;;;;5090050;28;20187;-65
2023/03/27 02:21:03;;;;;;;3.20;2.70;;;23.60;84.20;;;;;;5074757;28;20171;-73
2023/03/27 02:23:30;;;;;;;3.73;3.03;;;23.70;84.00;;;;;;5072438;28;20190;-72
2023/03/27 02:25:58;;;;;;;3.73;2.67;;;23.60;84.10;;;;;;5074699;28;20183;-67
2023/03/27 02:28:57;;;;;;;3.27;2.97;;;23.60;84.80;;;;;;5074482;28;20203;-68
2023/03/27 02:31:31;;;;;;;3.33;2.90;;;23.60;84.20;;;;;;5041108;28;20206;-68
2023/03/27 02:34:10;;;;;;;5.10;3.00;;;23.60;84.40;;;;;;5074773;28;20247;-65
2023/03/27 02:36:53;;;;;;;3.57;2.67;;;23.60;84.60;;;;;;5074454;28;20286;-67
2023/03/27 02:39:56;;;;;;;4.63;4.23;;;23.60;84.60;;;;;;5074313;28;20175;-65
2023/03/27 02:42:49;;;;;;;3.77;3.37;;;23.50;84.30;;;;;;5074163;28;20308;-67
2023/03/27 02:45:42;;;;;;;4.37;3.10;;;23.60;84.90;;;;;;5074023;28;20644;-67
2023/03/27 02:48:33;;;;;;;3.87;3.20;;;23.50;84.20;;;;;;5044132;28;20223;-70
2023/03/27 02:51:08;;;;;;;3.43;3.00;;;23.60;84.10;;;;;;5056593;28;20210;-70
2023/03/27 02:53:51;;;;;;;6.43;3.30;;;23.60;83.90;;;;;;5062102;28;20233;-72
2023/03/27 02:56:22;;;;;;;3.93;3.10;;;23.50;84.20;;;;;;5064756;28;20194;-68
2023/03/27 02:59:21;;;;;;;3.70;2.90;;;23.50;84.30;;;;;;5073260;28;20206;-74
2023/03/27 03:01:50;;;;;;;4.77;3.00;;;23.30;84.50;;;;;;5048941;28;20246;-66
2023/03/27 03:04:27;;;;;;;5.00;3.17;;;23.30;84.60;;;;;;5066516;28;20203;-68
2023/03/27 03:06:55;;;;;;;3.37;3.07;;;23.20;84.80;;;;;;5078538;28;20185;-76
2023/03/27 03:09:24;;;;;;;6.87;3.40;;;23.10;84.90;;;;;;5073349;28;20246;-66
2023/03/27 03:11:53;;;;;;;3.00;2.80;;;23.10;84.90;;;;;;5082505;28;20214;-70
2023/03/27 03:14:27;;;;;;;6.93;3.07;;;23.10;85.40;;;;;;5077511;28;20676;-69
2023/03/27 03:16:54;;;;;;;4.67;3.33;;;23.10;85.50;;;;;;5077393;28;20174;-73
2023/03/27 03:19:22;;;;;;;6.97;3.50;;;23.20;85.70;;;;;;5076952;28;20198;-76
2023/03/27 03:21:50;;;;;;;8.83;3.73;;;23.20;85.60;;;;;;5082425;28;20250;-73
2023/03/27 03:24:17;;;;;;;5.83;3.90;;;23.20;85.60;;;;;;5076187;28;20187;-71
2023/03/27 03:26:48;;;;;;;5.17;3.60;;;23.30;85.70;;;;;;5065096;28;20168;-69
2023/03/27 03:29:21;;;;;;;5.93;4.13;;;23.30;85.20;;;;;;5067999;28;20222;-71
2023/03/27 03:31:48;;;;;;;8.53;3.80;;;23.30;85.50;;;;;;5070570;28;20188;-74
2023/03/27 03:34:17;;;;;;;4.93;3.33;;;23.30;85.10;;;;;;5070126;28;20658;-75
2023/03/27 03:36:49;;;;;;;3.97;3.57;;;23.30;84.50;;;;;;5070495;28;20172;-68
2023/03/27 03:39:17;;;;;;;4.90;3.87;;;23.40;84.60;;;;;;5072574;28;20216;-77
2023/03/27 03:41:45;;;;;;;5.43;3.40;;;23.40;84.30;;;;;;5066870;28;20271;-77
2023/03/27 03:44:12;;;;;;;7.50;3.53;;;23.50;84.30;;;;;;5071472;28;20180;-70
2023/03/27 03:46:44;;;;;;;6.00;3.47;;;23.50;84.20;;;;;;5073352;28;20174;-78
2023/03/27 03:49:11;;;;;;;6.33;3.47;;;23.70;84.10;;;;;;5074525;28;20247;-76
2023/03/27 03:51:39;;;;;;;4.33;3.40;;;23.60;84.10;;;;;;5069813;28;20206;-76
2023/03/27 03:54:08;;;;;;;4.57;3.10;;;23.60;84.00;;;;;;5067646;28;20195;-70
2023/03/27 03:56:36;;;;;;;5.60;3.07;;;23.60;84.30;;;;;;5064309;28;20183;-72
2023/03/27 03:59:03;;;;;;;4.93;3.40;;;23.60;84.30;;;;;;5073323;28;20523;-73
2023/03/27 04:01:31;;;;;;;3.70;3.23;;;23.50;84.40;;;;;;5070688;28;20192;-71
2023/03/27 04:03:58;;;;;;;6.37;3.13;;;23.50;84.40;;;;;;5068270;28;20187;-73
2023/03/27 04:06:25;;;;;;;3.87;3.13;;;23.50;84.60;;;;;;5069465;28;20190;-69
2023/03/27 04:08:53;;;;;;;10.47;3.73;;;23.50;85.00;;;;;;5065798;28;20237;-71
2023/03/27 04:11:20;;;;;;;4.13;3.50;;;23.50;84.80;;;;;;5064018;28;20630;-71
2023/03/27 04:13:48;;;;;;;6.07;3.47;;;23.50;85.10;;;;;;5071133;28;20187;-73
2023/03/27 04:16:15;;;;;;;6.33;3.13;;;23.50;85.30;;;;;;5071266;28;20182;-73
2023/03/27 04:18:43;;;;;;;3.43;3.10;;;23.40;85.20;;;;;;5072469;28;20182;-72
2023/03/27 04:21:13;;;;;;;4.93;3.40;;;23.30;85.00;;;;;;5070640;28;20171;-72
2023/03/27 04:23:45;;;;;;;5.43;3.60;;;23.30;85.10;;;;;;5072252;28;20187;-69
2023/03/27 04:26:14;;;;;;;5.50;3.20;;;23.30;85.20;;;;;;5070642;28;20549;-70
2023/03/27 04:28:42;;;;;;;5.60;3.47;;;23.30;85.60;;;;;;5071826;28;20219;-70
2023/03/27 04:31:09;;;;;;;6.13;3.27;;;23.40;85.70;;;;;;5072499;28;20175;-70
2023/03/27 04:33:45;;;;;;;8.77;3.10;;;23.40;85.30;;;;;;5072280;28;20183;-70
2023/03/27 04:36:13;;;;;;;6.13;3.23;;;23.40;85.20;;;;;;5069985;28;20175;-72
2023/03/27 04:38:41;;;;;;;4.63;3.33;;;23.40;85.10;;;;;;5060697;28;20266;-70
2023/03/27 04:41:08;;;;;;;3.33;2.93;;;23.40;84.90;;;;;;5069550;28;20168;-71
2023/03/27 04:43:38;;;;;;;4.10;2.87;;;23.40;84.90;;;;;;5078525;28;20194;-76
2023/03/27 04:46:07;;;;;;;8.17;3.47;;;23.50;84.60;;;;;;5072400;28;20250;-71
2023/03/27 04:48:37;;;;;;;6.47;3.37;;;23.50;84.50;;;;;;5068090;28;20260;-71
2023/03/27 04:51:07;;;;;;;6.13;2.60;;;23.60;84.20;;;;;;5067059;28;20229;-68
2023/03/27 04:53:36;;;;;;;4.57;3.20;;;23.60;84.10;;;;;;5060745;28;20229;-71
2023/03/27 04:56:05;;;;;;;4.33;2.43;;;23.70;84.20;;;;;;5069203;28;20175;-71
2023/03/27 04:58:32;;;;;;;2.67;2.47;;;23.80;84.00;;;;;;5069693;28;20199;-69
2023/03/27 05:01:01;;;;;;;4.83;2.87;;;23.90;83.80;;;;;;5069949;28;20696;-67
2023/03/27 05:03:28;;;;;;;4.27;2.93;;;23.90;83.20;;;;;;5070956;28;20271;-68
2023/03/27 05:05:57;;;;;;;5.10;2.23;;;23.90;82.70;;;;;;5070118;28;20190;-67
2023/03/27 05:08:25;;;;;;;3.00;2.40;;;24.00;82.40;;;;;;5069742;28;20231;-67
2023/03/27 05:10:52;;;;;;;5.47;2.70;;;24.10;82.70;;;;;;5072200;28;20214;-67
2023/03/27 05:13:19;;;;;;;6.67;2.57;;;24.30;82.30;;;;;;5069758;28;20650;-73
2023/03/27 05:15:47;;;;;;;7.10;2.53;;;24.70;82.50;;;;;;5067460;28;20183;-67
2023/03/27 05:18:14;;;;;;;2.60;1.93;;;25.10;81.20;;;;;;5066372;28;20198;-68
2023/03/27 05:20:42;;;;;;;4.57;2.13;;;25.40;79.00;;;;;;5079740;28;20206;-72
2023/03/27 05:23:10;;;;;;;3.17;1.83;;;26.10;76.20;;;;;;5084805;28;20649;-72
2023/03/27 05:25:38;;;;;;;1.93;1.73;;;26.10;75.00;;;;;;5064448;28;20187;-72
2023/03/27 05:28:07;;;;;;;4.53;1.60;;;25.90;73.50;;;;;;5067122;28;20211;-73
2023/03/27 05:30:34;;;;;;;3.50;1.77;;;25.70;74.90;;;;;;5065802;28;20234;-73
2023/03/27 05:33:02;;;;;;;2.50;1.83;;;25.80;75.10;;;;;;5069979;28;20277;-77
2023/03/27 05:35:29;;;;;;;1.70;1.53;;;26.00;74.60;;;;;;5073084;28;20650;-75
2023/03/27 05:37:57;;;;;;;1.53;1.20;;;26.60;73.70;;;;;;5071521;28;20190;-73
2023/03/27 05:40:27;;;;;;;4.40;2.00;;;27.00;69.70;;;;;;5076286;28;20187;-73
2023/03/27 05:42:55;;;;;;;1.83;1.53;;;26.80;70.80;;;;;;5075215;28;20209;-70
2023/03/27 05:45:23;;;;;;;4.10;1.50;;;26.60;71.60;;;;;;5085140;28;20199;-72
2023/03/27 05:47:53;;;;;;;5.10;1.53;;;27.30;70.10;;;;;;5074876;28;20206;-71
2023/03/27 05:50:24;;;;;;;4.73;1.60;;;27.10;69.90;;;;;;5072460;28;20657;-72
2023/03/27 05:52:59;;;;;;;2.00;1.57;;;26.70;71.10;;;;;;5073893;28;20191;-73
2023/03/27 05:55:27;;;;;;;4.43;1.53;;;26.30;72.40;;;;;;5075571;28;20189;-69
2023/03/27 05:57:54;;;;;;;2.07;1.40;;;26.20;72.70;;;;;;5074880;28;21006;-71
2023/03/27 06:00:26;;;;;;;2.30;1.73;;;26.20;72.70;;;;;;5072124;28;20183;-76
2023/03/27 06:02:58;;;;;;;2.67;1.83;;;26.30;73.20;;;;;;5081878;28;20667;-75
2023/03/27 06:05:28;;;;;;;2.33;1.87;;;26.30;72.80;;;;;;5073952;28;20202;-73
2023/03/27 06:07:57;;;;;;;4.00;1.60;;;26.50;72.30;;;;;;5073229;28;20234;-69
2023/03/27 06:10:26;;;;;;;2.23;1.63;;;26.70;71.20;;;;;;5075248;28;20183;-72
2023/03/27 06:13:04;;;;;;;3.17;1.40;;;26.70;71.60;;;;;;5071575;28;20191;-74
2023/03/27 06:15:32;;;;;;;1.90;1.50;;;27.30;71.10;;;;;;5067681;28;20341;-70
2023/03/27 06:17:59;;;;;;;3.33;1.77;;;28.00;67.30;;;;;;5069863;28;20183;-72
2023/03/27 06:20:27;;;;;;;2.87;1.50;;;29.10;65.30;;;;;;5073029;28;20191;-69
2023/03/27 06:22:58;;;;;;;2.80;1.60;;;28.80;62.90;;;;;;5071650;28;20186;-72
2023/03/27 06:25:27;;;;;;;2.97;1.57;;;28.50;64.20;;;;;;5072963;28;20181;-68
2023/03/27 06:27:54;;;;;;;2.53;1.80;;;28.50;64.60;;;;;;5083496;28;20633;-70
2023/03/27 06:30:23;;;;;;;2.90;1.63;;;28.20;65.80;;;;;;5079221;28;20655;-70
2023/03/27 06:32:53;;;;;;;1.77;1.60;;;27.50;67.10;;;;;;5072570;28;20182;-67
2023/03/27 06:35:22;;;;;;;2.23;1.60;;;26.90;69.00;;;;;;5073440;28;20184;-69
2023/03/27 06:37:50;;;;;;;2.23;1.50;;;26.20;70.90;;;;;;5072170;28;20270;-70
2023/03/27 06:40:23;;;;;;;1.63;1.50;;;26.00;72.20;;;;;;5074707;28;20254;-68
2023/03/27 06:42:52;;;;;;;7.83;1.90;;;25.70;73.40;;;;;;5071024;28;20179;-70
2023/03/27 06:45:21;;;;;;;2.00;1.57;;;25.60;74.20;;;;;;5070843;28;20715;-69
2023/03/27 06:47:53;;;;;;;2.60;1.53;;;25.40;74.70;;;;;;5072445;28;20198;-67
2023/03/27 06:50:21;;;;;;;2.17;1.60;;;25.30;75.00;;;;;;5065772;28;20187;-69
2023/03/27 06:52:49;;;;;;;1.87;1.67;;;25.30;75.20;;;;;;5068397;28;20714;-69
2023/03/27 06:55:21;;;;;;;3.10;1.83;;;25.30;75.30;;;;;;5069244;28;20195;-69
2023/03/27 06:57:51;;;;;;;1.73;1.60;;;25.30;75.40;;;;;;5070686;28;20284;-72
2023/03/27 07:00:25;;;;;;;2.10;1.70;;;25.40;75.60;;;;;;5071683;28;20275;-72
2023/03/27 07:02:56;;;;;;;2.50;1.87;;;26.10;72.90;;;;;;5073792;28;20183;-71
2023/03/27 07:05:25;;;;;;;2.97;1.60;;;26.00;72.50;;;;;;5072759;28;20175;-73
2023/03/27 07:07:54;;;;;;;2.20;1.43;;;25.80;73.40;;;;;;5074900;28;20283;-69
2023/03/27 07:10:23;;;;;;;2.47;1.97;;;25.80;74.00;;;;;;5072521;28;20188;-66
2023/03/27 07:12:53;;;;;;;3.03;1.73;;;25.80;74.70;;;;;;5071978;28;20720;-66
2023/03/27 07:15:21;;;;;;;3.10;2.10;;;25.70;74.70;;;;;;5076652;28;20194;-68
2023/03/27 07:18:00;;;;;;;2.17;1.50;;;25.50;74.90;;;;;;5074445;28;20179;-68
2023/03/27 07:20:29;;;;;;;3.83;2.10;;;25.30;75.70;;;;;;5079962;28;20190;-69
2023/03/27 07:22:58;;;;;;;3.97;2.03;;;25.10;76.10;;;;;;5052706;28;20176;-67
2023/03/27 07:25:31;;;;;;;4.43;2.07;;;24.90;77.00;;;;;;5069453;28;20653;-66
2023/03/27 07:28:01;;;;;;;2.33;2.10;;;24.80;77.60;;;;;;5069428;28;20222;-75
2023/03/27 07:30:29;;;;;;;4.50;1.90;;;24.60;78.20;;;;;;5066849;28;20187;-67
2023/03/27 07:32:57;;;;;;;4.67;2.40;;;24.50;78.80;;;;;;5067956;28;20191;-65
2023/03/27 07:35:25;;;;;;;4.50;2.63;;;24.40;79.30;;;;;;5070498;28;20187;-68
2023/03/27 07:37:57;;;;;;;4.37;2.70;;;24.30;80.00;;;;;;5059277;28;20270;-68
2023/03/27 07:40:25;;;;;;;5.00;2.37;;;24.30;80.40;;;;;;5067072;28;20226;-65
2023/03/27 07:42:53;;;;;;;2.70;2.33;;;24.10;80.80;;;;;;5069967;28;20180;-67
2023/03/27 07:45:22;;;;;;;3.67;2.80;;;24.00;81.10;;;;;;5056256;28;20583;-69
2023/03/27 07:47:50;;;;;;;5.03;2.70;;;24.00;81.50;;;;;;5065388;28;20637;-68
2023/03/27 07:50:20;;;;;;;5.63;2.87;;;23.90;81.80;;;;;;5069429;28;20198;-68
2023/03/27 07:52:48;;;;;;;4.83;3.00;;;23.80;82.00;;;;;;5074095;28;20175;-68
2023/03/27 07:55:17;;;;;;;5.07;3.30;;;23.80;82.20;;;;;;5067195;28;20214;-67
2023/03/27 07:57:48;;;;;;;6.23;3.17;;;23.70;82.70;;;;;;5057234;28;20266;-71
2023/03/27 08:00:17;;;;;;;7.80;3.63;;;23.70;82.80;;;;;;5071572;28;20179;-68
2023/03/27 08:02:45;;;;;;;8.43;3.57;;;23.60;83.30;;;;;;5070995;28;20218;-68
2023/03/27 08:05:13;;;;;;;5.27;3.70;;;23.60;83.40;;;;;;5056096;28;20180;-68
2023/03/27 08:07:41;;;;;;;4.70;3.07;;;23.60;83.50;;;;;;5066604;28;20242;-67
2023/03/27 08:10:10;;;;;;;6.10;3.40;;;23.50;83.90;;;;;;5067648;28;20199;-70
2023/03/27 08:12:37;;;;;;;3.20;2.87;;;23.50;84.20;;;;;;5067581;28;20179;-73
2023/03/27 08:15:06;;;;;;;4.67;2.97;;;23.40;84.40;;;;;;5066528;28;20214;-70
2023/03/27 08:17:34;;;;;;;3.80;3.10;;;23.50;84.70;;;;;;5069746;28;20228;-73
2023/03/27 08:20:07;;;;;;;4.33;3.77;;;23.40;84.80;;;;;;5063067;28;20188;-72
2023/03/27 08:22:37;;;;;;;5.77;4.10;;;23.30;85.00;;;;;;5071091;28;20184;-73
2023/03/27 08:25:11;;;;;;;4.63;4.10;;;23.30;85.00;;;;;;5070241;28;20191;-69
2023/03/27 08:27:39;;;;;;;5.67;3.37;;;23.30;85.30;;;;;;5071288;28;20269;-70
2023/03/27 08:30:08;;;;;;;3.77;2.97;;;23.40;85.40;;;;;;5071336;28;20191;-68
2023/03/27 08:32:35;;;;;;;4.50;2.90;;;23.30;85.40;;;;;;5070321;28;20270;-73
2023/03/27 08:35:03;;;;;;;3.67;3.00;;;23.30;85.50;;;;;;5078524;28;20178;-72
2023/03/27 08:37:30;;;;;;;5.67;3.67;;;23.30;85.50;;;;;;5077424;28;20187;-71
2023/03/27 08:40:00;;;;;;;5.30;3.67;;;23.30;85.80;;;;;;5074465;28;20180;-66
2023/03/27 08:42:41;;;;;;;5.00;4.17;;;23.30;85.90;;;;;;5076349;28;20245;-71
2023/03/27 08:45:19;;;;;;;5.23;3.20;;;23.20;85.90;;;;;;5062152;28;20172;-69
2023/03/27 08:47:55;;;;;;;4.23;3.83;;;23.10;86.00;;;;;;5071288;28;20176;-69
2023/03/27 08:50:38;;;;;;;4.90;4.30;;;23.10;86.20;;;;;;5072404;28;20189;-67
2023/03/27 08:53:29;;;;;;;8.93;4.70;;;23.00;86.40;;;;;;5073582;28;20205;-65
2023/03/27 08:55:57;;;;;;;5.13;4.63;;;23.00;86.60;;;;;;5066377;28;20281;-68
2023/03/27 08:58:24;;;;;;;5.17;3.90;;;22.90;86.80;;;;;;5071597;28;20191;-67
2023/03/27 09:01:07;;;;;;;6.83;4.27;;;22.90;86.90;;;;;;5076609;28;20197;-68
2023/03/27 09:03:55;;;;;;;4.30;3.83;;;22.80;87.20;;;;;;5056061;28;20665;-68
2023/03/27 09:06:42;;;;;;;5.47;3.70;;;22.80;87.70;;;;;;5072713;28;20232;-67
2023/03/27 09:09:58;;;;;;;5.00;3.97;;;22.80;87.70;;;;;;5071335;28;20620;-69
2023/03/27 09:12:39;;;;;;;6.70;4.10;;;22.80;87.90;;;;;;5030115;28;20216;-67
2023/03/27 09:15:15;;;;;;;8.00;4.20;;;22.80;88.20;;;;;;5062235;28;20195;-67
2023/03/27 09:18:40;;;;;;;7.10;4.07;;;22.80;88.30;;;;;;5074702;28;20176;-67
2023/03/27 09:21:26;;;;;;;4.53;3.87;;;22.80;88.40;;;;;;5050092;28;20203;-69
2023/03/27 09:23:55;;;;;;;3.70;3.33;;;22.80;88.50;;;;;;5073991;28;20183;-67
2023/03/27 09:26:36;;;;;;;5.07;3.30;;;22.80;88.40;;;;;;5075011;28;20642;-69
2023/03/27 09:29:28;;;;;;;4.53;3.43;;;22.80;88.60;;;;;;5072772;28;20199;-69
2023/03/27 09:31:57;;;;;;;4.13;3.27;;;22.80;88.50;;;;;;5073755;28;20660;-66
2023/03/27 09:34:33;;;;;;;7.00;3.73;;;22.80;88.50;;;;;;5082141;28;20270;-67
2023/03/27 09:37:01;;;;;;;4.40;3.90;;;22.80;88.50;;;;;;5089400;28;20206;-66
2023/03/27 09:39:32;;;;;;;6.03;3.33;;;22.80;88.60;;;;;;5074539;28;20203;-68
2023/03/27 09:42:22;;;;;;;6.87;3.20;;;22.80;88.50;;;;;;5077191;28;20273;-69
2023/03/27 09:44:55;;;;;;;5.27;3.10;;;22.80;88.50;;;;;;5073375;28;20191;-67
2023/03/27 09:48:00;;;;;;;4.47;3.30;;;22.80;88.60;;;;;;5075494;28;20178;-67
2023/03/27 09:50:57;;;;;;;6.07;3.27;;;22.80;88.60;;;;;;5072837;28;20690;-67
2023/03/27 09:53:26;;;;;;;6.83;3.67;;;22.80;88.70;;;;;;5058611;28;20187;-70
2023/03/27 09:56:13;;;;;;;4.00;3.57;;;22.80;88.80;;;;;;5073603;28;20183;-69
2023/03/27 09:58:47;;;;;;;4.20;3.30;;;22.80;88.80;;;;;;5063133;28;20179;-67
2023/03/27 10:01:33;;;;;;;5.93;3.07;;;22.70;88.80;;;;;;5074961;28;20183;-68
2023/03/27 10:04:00;;;;;;;5.33;3.73;;;22.60;88.90;;;;;;5073998;28;20183;-67
2023/03/27 10:06:43;;;;;;;2.87;2.67;;;22.60;89.00;;;;;;5074800;28;20187;-71
2023/03/27 10:09:39;;;;;;;5.63;3.13;;;22.60;89.20;;;;;;5073334;28;20225;-66
2023/03/27 10:12:07;;;;;;;7.80;3.73;;;22.50;89.30;;;;;;5070292;28;20211;-68
2023/03/27 10:14:36;;;;;;;4.50;3.90;;;22.60;89.40;;;;;;5074032;28;20194;-70
2023/03/27 10:17:04;;;;;;;4.40;3.93;;;22.50;89.40;;;;;;5077491;28;20220;-69
2023/03/27 10:19:38;;;;;;;5.70;3.90;;;22.50;89.50;;;;;;5073742;28;20547;-67
2023/03/27 10:22:33;;;;;;;3.60;3.30;;;22.40;89.50;;;;;;5073503;28;20183;-70
2023/03/27 10:25:33;;;;;;;4.30;3.90;;;22.30;89.70;;;;;;5074643;28;20229;-70
2023/03/27 10:28:20;;;;;;;4.33;3.73;;;22.30;89.90;;;;;;5072311;28;20256;-68
2023/03/27 10:31:01;;;;;;;5.63;3.57;;;22.20;89.80;;;;;;5082660;28;20198;-68
2023/03/27 10:33:32;;;;;;;6.63;3.50;;;22.20;90.30;;;;;;5080961;28;20645;-67
2023/03/27 10:36:00;;;;;;;8.37;4.00;;;22.20;90.50;;;;;;5073194;28;20266;-71
2023/03/27 10:38:28;;;;;;;4.80;3.93;;;22.20;90.40;;;;;;5066425;28;20175;-68
2023/03/27 10:40:56;;;;;;;8.27;4.63;;;22.10;90.60;;;;;;5064457;28;20187;-69
2023/03/27 10:43:41;;;;;;;5.07;3.70;;;22.10;90.60;;;;;;5069539;28;20179;-70
2023/03/27 10:46:19;;;;;;;5.00;3.50;;;22.10;90.70;;;;;;5061020;28;20732;-66
2023/03/27 10:49:17;;;;;;;4.67;3.77;;;22.10;90.70;;;;;;5071501;28;20217;-67
2023/03/27 10:52:02;;;;;;;5.30;4.07;;;22.00;90.80;;;;;;5072700;28;20557;-70
2023/03/27 10:54:46;;;;;;;4.33;3.93;;;22.10;90.90;;;;;;5073206;28;20261;-67
2023/03/27 10:57:29;;;;;;;5.23;3.57;;;22.00;90.80;;;;;;5060738;28;20633;-65
2023/03/27 11:00:18;;;;;;;4.53;3.63;;;22.00;90.80;;;;;;5067660;28;20183;-70
2023/03/27 11:02:49;;;;;;;5.23;3.27;;;22.00;90.80;;;;;;5074239;28;20191;-68
2023/03/27 11:05:29;;;;;;;3.77;3.47;;;22.00;90.80;;;;;;5064483;28;20583;-67
2023/03/27 11:08:14;;;;;;;3.57;3.27;;;22.00;90.80;;;;;;5070202;28;20280;-68
2023/03/27 11:10:44;;;;;;;6.40;3.90;;;22.00;90.80;;;;;;5067341;28;20184;-68
2023/03/27 11:13:35;;;;;;;3.77;3.47;;;22.00;90.80;;;;;;5072312;28;20233;-67
2023/03/27 11:16:25;;;;;;;6.37;3.43;;;22.10;90.80;;;;;;5076445;28;20183;-69
2023/03/27 11:19:16;;;;;;;4.53;3.33;;;22.10;90.80;;;;;;5073459;28;20214;-69
2023/03/27 11:21:53;;;;;;;7.40;3.10;;;22.10;90.70;;;;;;5066822;28;20274;-70
2023/03/27 11:24:46;;;;;;;4.33;3.73;;;22.10;90.60;;;;;;5070809;28;20681;-71
2023/03/27 11:27:42;;;;;;;4.10;3.70;;;22.10;90.60;;;;;;5071931;28;20266;-67
2023/03/27 11:30:27;;;;;;;3.93;3.37;;;22.10;90.60;;;;;;5072143;28;20673;-69
2023/03/27 11:33:36;;;;;;;5.10;3.80;;;22.10;90.60;;;;;;5068775;28;20183;-69
2023/03/27 11:36:38;;;;;;;7.20;3.80;;;22.10;90.60;;;;;;5066968;28;20783;-67
2023/03/27 11:39:17;;;;;;;6.43;4.17;;;22.10;90.60;;;;;;5059678;28;20174;-71
2023/03/27 11:41:56;;;;;;;3.70;3.40;;;22.10;90.60;;;;;;5073239;28;20183;-76
2023/03/27 11:44:29;;;;;;;4.63;3.80;;;22.10;90.60;;;;;;5073008;28;20181;-67
2023/03/27 11:47:32;;;;;;;7.47;3.80;;;22.10;90.60;;;;;;5080912;28;20179;-67
2023/03/27 11:50:30;;;;;;;4.43;3.50;;;22.10;90.50;;;;;;5073283;28;20255;-68
2023/03/27 11:53:07;;;;;;;4.03;3.70;;;22.10;90.50;;;;;;5067887;28;20239;-69
2023/03/27 11:55:37;;;;;;;6.00;3.77;;;22.10;90.40;;;;;;5076850;28;20312;-72
2023/03/27 11:58:25;;;;;;;6.57;4.03;;;22.10;90.50;;;;;;5081944;28;20339;-71
2023/03/27 12:01:21;;;;;;;3.77;3.17;;;22.10;90.40;;;;;;5078502;28;20548;-69
2023/03/27 12:04:14;;;;;;;4.53;3.60;;;22.00;90.40;;;;;;5072281;28;20221;-67
2023/03/27 12:07:05;;;;;;;5.60;3.50;;;22.00;90.30;;;;;;5080298;28;20278;-72
2023/03/27 12:09:58;;;;;;;4.73;4.00;;;22.10;90.40;;;;;;5045776;28;20227;-68
2023/03/27 12:12:34;;;;;;;4.73;3.77;;;22.00;90.40;;;;;;5072669;28;20175;-70
2023/03/27 12:15:32;;;;;;;6.63;3.80;;;22.10;90.40;;;;;;5073681;28;20173;-70
2023/03/27 12:18:18;;;;;;;4.03;3.60;;;22.10;90.40;;;;;;5059114;28;20188;-66
2023/03/27 12:20:57;;;;;;;6.93;4.07;;;22.10;90.40;;;;;;5073891;28;20527;-68
2023/03/27 12:23:31;;;;;;;3.77;3.47;;;22.10;90.40;;;;;;5072941;28;20174;-69
2023/03/27 12:26:01;;;;;;;3.93;3.60;;;22.00;90.40;;;;;;5084565;28;20265;-68
2023/03/27 12:28:56;;;;;;;8.50;3.90;;;22.00;90.40;;;;;;5070812;28;20565;-67
2023/03/27 12:31:47;;;;;;;4.73;4.10;;;22.00;90.40;;;;;;5064916;28;20176;-65
2023/03/27 12:34:52;;;;;;;5.07;3.93;;;22.00;90.40;;;;;;5066826;28;20191;-70
2023/03/27 12:37:30;;;;;;;11.80;3.80;;;22.00;90.60;;;;;;5070213;28;20571;-67
2023/03/27 12:39:59;;;;;;;4.57;3.80;;;21.90;90.60;;;;;;5069310;28;20183;-66
2023/03/27 12:42:50;;;;;;;5.77;4.23;;;21.90;90.60;;;;;;5073878;28;20190;-65
2023/03/27 12:45:25;;;;;;;6.07;3.93;;;21.90;90.70;;;;;;5070194;28;20176;-66
2023/03/27 12:48:16;;;;;;;5.77;4.00;;;21.90;90.80;;;;;;5073390;28;20191;-67
2023/03/27 12:50:55;;;;;;;5.00;4.40;;;21.90;90.80;;;;;;5076047;28;20531;-70
2023/03/27 12:53:28;;;;;;;5.00;4.00;;;21.80;90.90;;;;;;5072444;28;20175;-67
2023/03/27 12:56:16;;;;;;;7.47;4.13;;;21.90;90.90;;;;;;5068862;28;20546;-70
2023/03/27 12:58:51;;;;;;;4.67;4.30;;;21.90;90.90;;;;;;5064408;28;20183;-67
2023/03/27 13:02:00;;;;;;;4.53;3.93;;;21.80;90.90;;;;;;5073093;28;20560;-67
2023/03/27 13:04:51;;;;;;;5.27;4.67;;;21.80;90.80;;;;;;5079719;28;20191;-70
2023/03/27 13:07:36;;;;;;;10.10;4.70;;;21.90;90.70;;;;;;5073460;28;20693;-67
2023/03/27 13:10:21;;;;;;;5.00;4.50;;;21.80;90.60;;;;;;5074423;28;20206;-69
2023/03/27 13:13:04;;;;;;;5.57;4.30;;;21.80;90.50;;;;;;5075490;28;20693;-71
2023/03/27 13:15:40;;;;;;;7.37;4.53;;;21.80;90.30;;;;;;5074020;28;20179;-69
2023/03/27 13:18:29;;;;;;;5.23;4.80;;;21.80;90.20;;;;;;5063858;28;20175;-68
2023/03/27 13:21:03;;;;;;;5.10;4.10;;;21.80;90.00;;;;;;5075431;28;20718;-72
2023/03/27 13:23:39;;;;;;;7.00;4.03;;;21.80;89.70;;;;;;5075486;28;20281;-66
2023/03/27 13:26:30;;;;;;;8.93;4.10;;;21.70;89.40;;;;;;5074300;28;20262;-70
2023/03/27 13:28:57;;;;;;;4.57;3.93;;;21.70;88.80;;;;;;5081159;28;20215;-72
2023/03/27 13:31:48;;;;;;;4.47;4.07;;;21.70;88.50;;;;;;5080242;28;20202;-69